Mitsukawa Maru — JD2495 — position and weather

sailwx.info

Track history (hours):
 
Tides and Currents Weather Stations Pressure Air Temp Water Temp Dewpoint Dewpoint Depression Visibility Wind Speed Wind Dir Waves Ship Positions

Mitsukawa Maru

Last reported at 2015-Jan-29 17:31 UTC. Time now 2015-Jan-30 09:26 UTC.
Position N 34°46' E 139°10'.

Length 105 m; draft 4.2 m.

Type: Cargo ship. MMSI: 431000326.

Date/timePositionNaut miles runAvg speedWind from/ knotsBaromVisibWave heightAir tempDewpointWater temp
2015-Jan-29 17:31N 34°46' E 139°10'1512.6
2015-Jan-29 16:18N 34°56' E 139°24'912.6
2015-Jan-29 15:33N 35°02' E 139°33'1413.5
2015-Jan-29 14:34N 35°11' E 139°45'1212.1
2015-Jan-29 13:34N 35°23' E 139°42'1313.1
2015-Jan-29 12:33N 35°31' E 139°55'3 0.1
2015-Jan-28 13:31N 35°29' E 139°52'1111.7
2015-Jan-28 12:33N 35°20' E 139°44'1110.9
2015-Jan-28 11:33N 35°09' E 139°46'1110.9
2015-Jan-28 10:33N 35°01' E 139°38'1211.8
2015-Jan-28 09:31N 34°53' E 139°26'1412.9
2015-Jan-28 08:24N 34°44' E 139°12'213 4.9
2015-Jan-26 12:33N 34°12' E 134°57'1514.3
2015-Jan-26 11:32N 34°26' E 135°01'1110.8
2015-Jan-26 10:33N 34°36' E 134°58'1614.9
2015-Jan-26 09:28N 34°30' E 134°40'  
2015-Jan-21 22:37N 34°47' E 139°11'214.1
2015-Jan-21 22:29N 34°48' E 139°13'1313.9
2015-Jan-21 21:31N 34°57' E 139°25'1414.0
2015-Jan-21 20:33N 35°05' E 139°38'1212.4
2015-Jan-21 19:33N 35°16' E 139°46'1110.6
2015-Jan-21 18:33N 35°27' E 139°46'7 0.5
2015-Jan-21 03:33N 35°30' E 139°54'1211.8
2015-Jan-21 02:33N 35°21' E 139°45'1110.7
2015-Jan-21 01:33N 35°11' E 139°46'1111.3
2015-Jan-21 00:33N 35°01' E 139°39'  
Track history (hours):
 
Tides and Currents Weather Stations Pressure Air Temp Water Temp Dewpoint Dewpoint Depression Visibility Wind Speed Wind Dir Waves Ship Positions

Mitsukawa Maru

Last reported at 2015-Jan-29 17:31 UTC. Time now 2015-Jan-30 09:26 UTC.
Position N 34°46' E 139°10'.

Length 105 m; draft 4.2 m.

Type: Cargo ship. MMSI: 431000326.

Date/timePositionNaut miles runAvg speedWind from/ knotsBaromVisibWave heightAir tempDewpointWater temp
2015-Jan-29 17:31N 34°46' E 139°10'1512.6
2015-Jan-29 16:18N 34°56' E 139°24'912.6
2015-Jan-29 15:33N 35°02' E 139°33'1413.5
2015-Jan-29 14:34N 35°11' E 139°45'1212.1
2015-Jan-29 13:34N 35°23' E 139°42'1313.1
2015-Jan-29 12:33N 35°31' E 139°55'3 0.1
2015-Jan-28 13:31N 35°29' E 139°52'1111.7
2015-Jan-28 12:33N 35°20' E 139°44'1110.9
2015-Jan-28 11:33N 35°09' E 139°46'1110.9
2015-Jan-28 10:33N 35°01' E 139°38'1211.8
2015-Jan-28 09:31N 34°53' E 139°26'1412.9
2015-Jan-28 08:24N 34°44' E 139°12'213 4.9
2015-Jan-26 12:33N 34°12' E 134°57'1514.3
2015-Jan-26 11:32N 34°26' E 135°01'1110.8
2015-Jan-26 10:33N 34°36' E 134°58'1614.9
2015-Jan-26 09:28N 34°30' E 134°40'  
2015-Jan-21 22:37N 34°47' E 139°11'214.1
2015-Jan-21 22:29N 34°48' E 139°13'1313.9
2015-Jan-21 21:31N 34°57' E 139°25'1414.0
2015-Jan-21 20:33N 35°05' E 139°38'1212.4
2015-Jan-21 19:33N 35°16' E 139°46'1110.6
2015-Jan-21 18:33N 35°27' E 139°46'7 0.5
2015-Jan-21 03:33N 35°30' E 139°54'1211.8
2015-Jan-21 02:33N 35°21' E 139°45'1110.7
2015-Jan-21 01:33N 35°11' E 139°46'1111.3
2015-Jan-21 00:33N 35°01' E 139°39'  

Dump ship's entire track history